This is the latest recevied weather packets stored in our database for station/object K5KVN. If no packets are shown the sender has not sent any weather packets the latest 10 day(s).
| Time | Temp. | Humidity | Pressure | Rain* | Wind** | Luminosity | Snow |
|---|---|---|---|---|---|---|---|
| 1787422928 | 34.44° C | 50% | 1018.6 hPa | 0 mm | - | - | - |
| 1787422388 | 34.44° C | 50% | 1018.8 hPa | 0 mm | - | - | - |
| 1787421728 | 34.44° C | 50% | 1018.9 hPa | 0 mm | - | - | - |
| 1787421128 | 34.44° C | 50% | 1019 hPa | 0 mm | - | - | - |
| 1787420529 | 34.44° C | 49% | 1019.1 hPa | 0 mm | - | - | - |
| 1787419928 | 35° C | 49% | 1019 hPa | 0 mm | - | - | - |
| 1787419330 | 35° C | 48% | 1019.1 hPa | 0 mm | - | - | - |
| 1787418728 | 35° C | 49% | 1019.3 hPa | 0 mm | - | - | - |
| 1787418127 | 34.44° C | 51% | 1019.3 hPa | 0 mm | - | - | - |
| 1787417589 | 34.44° C | 51% | 1019.3 hPa | 0 mm | - | - | - |
| 1787416928 | 33.89° C | 51% | 1019.2 hPa | 0 mm | - | - | - |
| 1787416328 | 34.44° C | 51% | 1019.3 hPa | 0 mm | - | - | - |
| 1787415725 | 34.44° C | 50% | 1019.3 hPa | 0 mm | - | - | - |
| 1787415188 | 34.44° C | 50% | 1019.3 hPa | 0 mm | - | - | - |
| 1787414526 | 34.44° C | 50% | 1019.3 hPa | 0 mm | - | - | - |
| 1787413923 | 34.44° C | 50% | 1019.3 hPa | 0 mm | - | - | - |
| 1787413325 | 34.44° C | 51% | 1019.5 hPa | 0 mm | - | - | - |
| 1787412726 | 33.89° C | 51% | 1019.5 hPa | 0 mm | - | - | - |
| 1787412123 | 33.33° C | 51% | 1019.5 hPa | 0 mm | - | - | - |
| 1787411523 | 32.78° C | 54% | 1019.3 hPa | 0 mm | - | - | - |
| 1787410922 | 32.22° C | 54% | 1019.1 hPa | 0 mm | - | - | - |
| 1787410383 | 31.67° C | 56% | 1018.8 hPa | 0 mm | - | - | - |
| 1787409722 | 30.56° C | 62% | 1018.8 hPa | 0 mm | - | - | - |
| 1787409119 | 28.89° C | 66% | 1018.8 hPa | 0 mm | - | - | - |
| 1787408518 | 27.78° C | 71% | 1019 hPa | 0 mm | - | - | - |
* Rain latest hour (hover to see other rain measurements)
** Current wind speed in m/s (hover to see current wind gust speed)